Amityville, New York
Current Conditions -  °F | °C
As of 2:53 AM on Thursday 27 Nov 2014 (Local Time) from KFRG Reporting Station
Overcast Overcast  
Wind Chill: 30°   Ceiling: 8500
Heat Index: 36°   Visibility: 10mi
Dew Point: 32°   Wind: 7mph
Humidity: 86%   Direction: 310°NW
Pressure: 29.89"   Gusts: NA
Location:  40.68°N, 73.42°W
Report Text: KFRG 270753Z AUTO 31006KT 10SM OVC085 02/00 A2989 RMK AO2 SLP120 T00220000
Loading
Personal Weather Stations






























Interactive Weather Map New forecast layout! Learn more

10-Day Weather Forecast

Advertisements
Track Severe Weather on mobile